createdAt,value
2022-12-23T00:00:43.486Z,8.43
2022-12-23T00:03:10.495Z,8.40
2022-12-23T00:05:41.368Z,8.41
2022-12-23T00:08:08.716Z,8.45
2022-12-23T00:10:39.482Z,8.43
2022-12-23T00:13:25.474Z,8.41
2022-12-23T00:16:03.449Z,8.42
2022-12-23T00:18:30.383Z,8.42
2022-12-23T00:21:08.336Z,8.42
2022-12-23T00:23:39.297Z,8.42
2022-12-23T00:26:06.539Z,8.45
2022-12-23T00:28:33.822Z,8.45
2022-12-23T00:31:08.629Z,8.45
2022-12-23T00:33:38.216Z,8.45
2022-12-23T00:36:15.650Z,8.45
2022-12-23T00:39:01.294Z,8.42
2022-12-23T00:41:46.880Z,8.41
2022-12-23T00:44:13.814Z,8.44
2022-12-23T00:46:40.739Z,8.45
2022-12-23T00:49:26.472Z,8.41
2022-12-23T00:51:53.407Z,8.39
2022-12-23T00:54:20.298Z,8.37
2022-12-23T00:56:47.144Z,8.39
2022-12-23T00:59:14.144Z,8.38
2022-12-23T01:02:00.144Z,8.38
2022-12-23T01:04:45.861Z,8.35
2022-12-23T01:07:12.869Z,8.36
2022-12-23T01:09:39.775Z,8.39
2022-12-23T01:12:07.439Z,8.39
2022-12-23T01:14:34.555Z,8.33
2022-12-23T01:17:01.646Z,8.39
2022-12-23T01:19:29.196Z,8.41
2022-12-23T01:21:57.099Z,8.38
2022-12-23T01:24:27.651Z,8.38
2022-12-23T01:26:54.777Z,8.42
2022-12-23T01:29:22.192Z,8.40
2022-12-23T01:31:50.370Z,8.41
2022-12-23T01:34:18.250Z,8.43
2022-12-23T01:36:45.504Z,8.41
2022-12-23T01:39:12.545Z,8.39
2022-12-23T01:41:57.996Z,8.41
2022-12-23T01:44:46.877Z,8.41
2022-12-23T01:47:24.139Z,8.39
2022-12-23T01:49:54.303Z,8.36
2022-12-23T01:52:21.669Z,8.39
2022-12-23T01:54:48.996Z,8.37
2022-12-23T01:57:16.004Z,8.38
2022-12-23T02:00:02.416Z,8.37
2022-12-23T02:02:55.455Z,8.37
2022-12-23T02:05:24.030Z,8.37
2022-12-23T02:08:12.154Z,8.39
2022-12-23T02:10:59.988Z,8.35
2022-12-23T02:14:30.084Z,8.38
2022-12-23T02:17:17.517Z,8.35
2022-12-23T02:20:09.609Z,8.41
2022-12-23T02:23:08.682Z,8.43
2022-12-23T02:25:53.724Z,8.46
2022-12-23T02:28:36.875Z,8.43
2022-12-23T02:31:16.079Z,8.46
2022-12-23T02:33:57.196Z,8.48
2022-12-23T02:36:47.207Z,8.50
2022-12-23T02:39:25.868Z,8.52
2022-12-23T02:42:37.714Z,8.54
2022-12-23T02:45:18.869Z,8.49
2022-12-23T02:47:59.747Z,8.55
2022-12-23T02:50:33.674Z,8.49
2022-12-23T02:53:08.069Z,8.47
2022-12-23T02:55:38.594Z,8.50
2022-12-23T02:58:11.328Z,8.45
2022-12-23T03:00:40.259Z,8.47
2022-12-23T03:03:07.300Z,8.44
2022-12-23T03:05:45.138Z,8.46
2022-12-23T03:08:19.197Z,8.44
2022-12-23T03:11:06.353Z,8.44
2022-12-23T03:13:47.549Z,8.43
2022-12-23T03:16:24.773Z,8.43
2022-12-23T03:19:01.917Z,8.42
2022-12-23T03:21:42.567Z,8.49
2022-12-23T03:24:34.408Z,8.51
2022-12-23T03:27:10.467Z,8.54
2022-12-23T03:30:08.493Z,8.55
2022-12-23T03:32:50.131Z,8.54
2022-12-23T03:35:21.639Z,8.49
2022-12-23T03:37:51.802Z,8.50
2022-12-23T03:40:35.164Z,8.51
2022-12-23T03:43:08.150Z,8.51
2022-12-23T03:45:43.496Z,8.49
2022-12-23T03:48:21.054Z,8.50
2022-12-23T03:50:52.767Z,8.45
2022-12-23T03:53:29.780Z,8.46
2022-12-23T03:56:02.507Z,8.50
2022-12-23T03:58:48.541Z,8.53
2022-12-23T04:01:43.343Z,8.55
2022-12-23T04:04:26.283Z,8.55
2022-12-23T04:07:21.391Z,8.55
2022-12-23T04:09:49.898Z,8.56
2022-12-23T04:12:17.417Z,8.57
2022-12-23T04:14:49.272Z,8.57
2022-12-23T04:17:19.811Z,8.57
2022-12-23T04:19:47.177Z,8.59
2022-12-23T04:22:15.969Z,8.55
2022-12-23T04:24:43.264Z,8.60
2022-12-23T04:27:13.620Z,8.60
2022-12-23T04:29:41.058Z,8.57
2022-12-23T04:32:09.957Z,8.56
2022-12-23T04:34:36.963Z,8.62
2022-12-23T04:37:03.923Z,8.63
2022-12-23T04:39:30.850Z,8.65
2022-12-23T04:41:57.723Z,8.64
2022-12-23T04:44:24.565Z,8.66
2022-12-23T04:46:51.487Z,8.62
2022-12-23T04:49:18.439Z,8.60
2022-12-23T04:51:45.872Z,8.57
2022-12-23T04:54:12.828Z,8.56
2022-12-23T04:56:40.144Z,8.55
2022-12-23T04:59:07.034Z,8.50
2022-12-23T05:01:34.052Z,8.51
2022-12-23T05:04:00.939Z,8.51
2022-12-23T05:06:27.925Z,8.49
2022-12-23T05:08:54.909Z,8.45
2022-12-23T05:11:21.852Z,8.46
2022-12-23T05:13:48.751Z,8.45
2022-12-23T05:16:15.640Z,8.46
2022-12-23T05:18:42.588Z,8.44
2022-12-23T05:21:09.481Z,8.46
2022-12-23T05:23:36.390Z,8.45
2022-12-23T05:26:03.373Z,8.46
2022-12-23T05:28:30.583Z,8.45
2022-12-23T05:31:03.570Z,8.47
2022-12-23T05:33:31.953Z,8.47
2022-12-23T05:35:59.363Z,8.46
2022-12-23T05:38:26.853Z,8.43
2022-12-23T05:40:53.878Z,8.45
2022-12-23T05:43:21.117Z,8.44
2022-12-23T05:45:48.937Z,8.45
2022-12-23T05:48:15.738Z,8.45
2022-12-23T05:50:42.635Z,8.45
2022-12-23T05:53:09.421Z,8.43
2022-12-23T05:55:36.528Z,8.44
2022-12-23T05:58:03.425Z,8.44
2022-12-23T06:00:30.246Z,8.44
2022-12-23T06:02:57.312Z,8.43
2022-12-23T06:05:24.304Z,8.42
2022-12-23T06:07:51.279Z,8.43
2022-12-23T06:10:18.209Z,8.45
2022-12-23T06:12:45.035Z,8.47
2022-12-23T06:15:11.935Z,8.47
2022-12-23T06:17:38.841Z,8.47
2022-12-23T06:20:06.395Z,8.48
2022-12-23T06:22:33.372Z,8.50
2022-12-23T06:25:00.155Z,8.51
2022-12-23T06:27:27.265Z,8.53
2022-12-23T06:29:54.054Z,8.55
2022-12-23T06:32:20.838Z,8.55
2022-12-23T06:34:49.720Z,8.55
2022-12-23T06:37:16.498Z,8.57
2022-12-23T06:39:43.243Z,8.60
2022-12-23T06:42:10.195Z,8.60
2022-12-23T06:44:36.922Z,8.62
2022-12-23T06:47:03.953Z,8.62
2022-12-23T06:49:30.757Z,8.62
2022-12-23T06:51:57.523Z,8.62
2022-12-23T06:54:24.260Z,8.63
2022-12-23T06:56:51.235Z,8.62
2022-12-23T06:59:17.999Z,8.63
2022-12-23T07:01:44.878Z,8.62
2022-12-23T07:04:11.670Z,8.62
2022-12-23T07:06:39.770Z,8.62
2022-12-23T07:09:07.450Z,8.63
2022-12-23T07:11:34.883Z,8.66
2022-12-23T07:14:01.666Z,8.65
2022-12-23T07:16:28.470Z,8.66
2022-12-23T07:18:55.277Z,8.64
2022-12-23T07:21:29.086Z,8.63
2022-12-23T07:23:56.759Z,8.60
2022-12-23T07:26:23.611Z,8.60
2022-12-23T07:28:50.362Z,8.59
2022-12-23T07:31:17.255Z,8.59
2022-12-23T07:33:44.363Z,8.59
2022-12-23T07:36:11.413Z,8.59
2022-12-23T07:38:38.265Z,8.58
2022-12-23T07:41:06.520Z,8.59
2022-12-23T07:43:33.421Z,8.59
2022-12-23T07:46:06.940Z,8.59
2022-12-23T07:48:33.838Z,8.60
2022-12-23T07:51:02.568Z,8.60
2022-12-23T07:53:29.888Z,8.64
2022-12-23T07:55:57.261Z,8.60
2022-12-23T07:58:25.052Z,8.66
2022-12-23T08:00:59.462Z,8.68
2022-12-23T08:03:26.445Z,8.67
2022-12-23T08:06:19.815Z,8.72
2022-12-23T08:08:47.208Z,8.71
2022-12-23T08:11:15.608Z,8.73
2022-12-23T08:13:44.990Z,8.68
2022-12-23T08:16:12.613Z,8.71
2022-12-23T08:18:41.728Z,8.71
2022-12-23T08:21:17.788Z,8.72
2022-12-23T08:23:45.496Z,8.73
2022-12-23T08:26:18.798Z,8.75
2022-12-23T08:28:46.755Z,8.76
2022-12-23T08:31:17.984Z,8.76
2022-12-23T08:33:48.410Z,8.81
2022-12-23T08:36:23.336Z,8.82
2022-12-23T08:38:53.190Z,8.82
2022-12-23T08:41:23.694Z,8.83
2022-12-23T08:43:51.440Z,8.85
2022-12-23T08:46:18.355Z,8.85
2022-12-23T08:48:49.480Z,8.89
2022-12-23T08:51:18.764Z,8.90
2022-12-23T08:53:46.821Z,8.90
2022-12-23T08:56:17.141Z,8.90
2022-12-23T08:58:46.894Z,8.93
2022-12-23T09:01:15.735Z,8.95
2022-12-23T09:03:43.236Z,8.98
2022-12-23T09:06:26.531Z,9.00
2022-12-23T09:08:56.510Z,9.02
2022-12-23T09:11:25.656Z,9.05
2022-12-23T09:13:52.915Z,9.11
2022-12-23T09:16:20.403Z,9.15
2022-12-23T09:18:47.244Z,9.16
2022-12-23T09:21:18.173Z,9.17
2022-12-23T09:23:45.437Z,9.16
2022-12-23T09:26:27.860Z,9.17
2022-12-23T09:28:56.026Z,9.17
2022-12-23T09:31:29.055Z,9.23
2022-12-23T09:33:59.584Z,9.26
2022-12-23T09:36:27.501Z,9.30
2022-12-23T09:38:56.364Z,9.32
2022-12-23T09:42:01.773Z,9.34
2022-12-23T09:44:49.539Z,9.34
2022-12-23T09:47:21.346Z,9.39
2022-12-23T09:49:58.265Z,9.41
2022-12-23T09:52:33.624Z,9.42
2022-12-23T09:55:00.986Z,9.43
2022-12-23T09:58:01.203Z,9.40
2022-12-23T10:00:39.766Z,9.43
2022-12-23T10:03:19.301Z,9.46
2022-12-23T10:06:11.172Z,9.45
2022-12-23T10:08:42.261Z,9.47
2022-12-23T10:11:25.981Z,9.45
2022-12-23T10:14:24.638Z,9.42
2022-12-23T10:17:15.933Z,9.44
2022-12-23T10:19:46.289Z,9.47
2022-12-23T10:22:20.585Z,9.52
2022-12-23T10:24:49.417Z,9.58
2022-12-23T10:27:29.854Z,9.67
2022-12-23T10:30:13.923Z,9.73
2022-12-23T10:33:18.367Z,9.83
2022-12-23T10:36:10.157Z,9.92
2022-12-23T10:38:48.112Z,9.99
2022-12-23T10:41:31.694Z,10.03
2022-12-23T10:44:37.935Z,10.06
2022-12-23T10:47:28.170Z,10.07
2022-12-23T10:50:19.959Z,10.09
2022-12-23T10:52:49.171Z,10.07
2022-12-23T10:55:27.305Z,10.05
2022-12-23T10:58:14.715Z,10.02
2022-12-23T11:00:47.904Z,10.04
2022-12-23T11:03:30.007Z,10.06
2022-12-23T11:05:58.865Z,10.04
2022-12-23T11:08:31.614Z,10.06
2022-12-23T11:11:01.727Z,10.07
2022-12-23T11:13:33.857Z,10.06
2022-12-23T11:16:19.691Z,10.08
2022-12-23T11:18:58.114Z,10.06
2022-12-23T11:21:25.867Z,10.02
2022-12-23T11:24:09.556Z,10.03
2022-12-23T11:26:36.988Z,9.94
2022-12-23T11:29:12.638Z,9.98
2022-12-23T11:31:45.083Z,9.93
2022-12-23T11:34:18.972Z,9.93
2022-12-23T11:37:03.363Z,9.93
2022-12-23T11:39:36.962Z,9.92
2022-12-23T11:42:18.012Z,9.90
2022-12-23T11:44:49.016Z,9.86
2022-12-23T11:47:22.699Z,9.84
2022-12-23T11:49:58.526Z,9.83
2022-12-23T11:52:32.828Z,9.80
2022-12-23T11:55:02.040Z,9.80
2022-12-23T11:57:46.419Z,9.80
2022-12-23T12:00:28.351Z,9.76
2022-12-23T12:02:59.002Z,9.76
2022-12-23T12:05:30.141Z,9.77
2022-12-23T12:08:04.018Z,9.78
2022-12-23T12:10:35.379Z,9.76
2022-12-23T12:13:05.805Z,9.76
2022-12-23T12:15:41.064Z,9.76
2022-12-23T12:18:13.492Z,9.70
2022-12-23T12:20:53.685Z,9.74
2022-12-23T12:23:40.942Z,9.73
2022-12-23T12:26:17.270Z,9.77
2022-12-23T12:28:48.396Z,9.68
2022-12-23T12:31:28.005Z,9.74
2022-12-23T12:34:03.911Z,9.76
2022-12-23T12:36:43.946Z,9.75
2022-12-23T12:39:21.127Z,9.69
2022-12-23T12:42:05.031Z,9.69
2022-12-23T12:45:01.000Z,9.70
2022-12-23T12:48:13.033Z,9.67
2022-12-23T12:50:58.547Z,9.63
2022-12-23T12:53:30.278Z,9.67
2022-12-23T12:56:06.109Z,9.65
2022-12-23T12:58:34.922Z,9.67
2022-12-23T13:01:36.974Z,9.62
2022-12-23T13:04:30.925Z,9.65
2022-12-23T13:07:20.644Z,9.63
2022-12-23T13:10:02.096Z,9.61
2022-12-23T13:12:36.209Z,9.62
2022-12-23T13:15:15.202Z,9.57
2022-12-23T13:18:08.042Z,9.58
2022-12-23T13:20:57.429Z,9.62
2022-12-23T13:23:44.864Z,9.60
2022-12-23T13:26:32.700Z,9.58
2022-12-23T13:29:31.018Z,9.58
2022-12-23T13:32:17.159Z,9.61
2022-12-23T13:35:12.563Z,9.62
2022-12-23T13:38:05.358Z,9.64
2022-12-23T13:41:03.277Z,9.62
2022-12-23T13:43:42.841Z,9.62
2022-12-23T13:46:23.082Z,9.59
2022-12-23T13:49:17.496Z,9.64
2022-12-23T13:51:53.413Z,9.64
2022-12-23T13:54:33.850Z,9.64
2022-12-23T13:57:20.643Z,9.67
2022-12-23T14:00:06.304Z,9.69
2022-12-23T14:03:17.251Z,9.68
2022-12-23T14:05:54.337Z,9.73
2022-12-23T14:08:27.449Z,9.72
2022-12-23T14:11:12.396Z,9.76
2022-12-23T14:13:52.925Z,9.74
2022-12-23T14:17:07.784Z,9.77
2022-12-23T14:19:52.429Z,9.74
2022-12-23T14:22:58.976Z,9.73
2022-12-23T14:25:33.814Z,9.66
2022-12-23T14:28:19.671Z,9.68
2022-12-23T14:30:47.093Z,9.66
2022-12-23T14:33:18.585Z,9.69
2022-12-23T14:35:46.314Z,9.70
2022-12-23T14:38:15.783Z,9.71
2022-12-23T14:40:42.524Z,9.71
2022-12-23T14:43:33.008Z,9.73
2022-12-23T14:46:05.316Z,9.71
2022-12-23T14:48:44.559Z,9.71
2022-12-23T14:51:14.178Z,9.69
2022-12-23T14:53:53.910Z,9.67
2022-12-23T14:56:27.362Z,9.65
2022-12-23T14:59:12.558Z,9.62
2022-12-23T15:01:54.261Z,9.58
2022-12-23T15:04:23.868Z,9.54
2022-12-23T15:06:58.935Z,9.51
2022-12-23T15:09:40.209Z,9.49
2022-12-23T15:12:18.780Z,9.46
2022-12-23T15:14:52.132Z,9.46
2022-12-23T15:17:31.120Z,9.44
2022-12-23T15:20:14.101Z,9.42
2022-12-23T15:22:43.778Z,9.42
2022-12-23T15:25:27.643Z,9.44
2022-12-23T15:28:01.483Z,9.45
2022-12-23T15:30:34.071Z,9.45
2022-12-23T15:33:11.944Z,9.43
2022-12-23T15:35:52.467Z,9.41
2022-12-23T15:38:21.314Z,9.38
2022-12-23T15:41:18.839Z,9.38
2022-12-23T15:43:45.789Z,9.39
2022-12-23T15:46:28.679Z,9.41
2022-12-23T15:48:56.779Z,9.42
2022-12-23T15:54:31.441Z,9.47
2022-12-23T15:57:00.423Z,9.47
2022-12-23T15:59:31.912Z,9.48
2022-12-23T16:01:59.027Z,9.49
2022-12-23T16:04:29.483Z,9.50
2022-12-23T16:06:56.588Z,9.48
2022-12-23T16:09:32.233Z,9.49
2022-12-23T16:12:22.971Z,9.50
2022-12-23T16:14:55.972Z,9.50
2022-12-23T16:17:34.766Z,9.47
2022-12-23T16:20:42.010Z,9.46
2022-12-23T16:23:11.053Z,9.42
2022-12-23T16:25:38.726Z,9.39
2022-12-23T16:28:21.777Z,9.41
2022-12-23T16:30:52.392Z,9.39
2022-12-23T16:33:37.319Z,9.36
2022-12-23T16:36:25.274Z,9.39
2022-12-23T16:39:19.049Z,9.39
2022-12-23T16:41:45.871Z,9.41
2022-12-23T16:44:12.652Z,9.41
2022-12-23T16:46:43.978Z,9.41
2022-12-23T16:49:16.362Z,9.42
2022-12-23T16:51:43.255Z,9.43
2022-12-23T16:54:14.805Z,9.44
2022-12-23T16:56:41.656Z,9.43
2022-12-23T16:59:09.952Z,9.43
2022-12-23T17:01:39.623Z,9.40
2022-12-23T17:04:07.415Z,9.41
2022-12-23T17:06:36.064Z,9.42
2022-12-23T17:09:04.340Z,9.43
2022-12-23T17:11:40.207Z,9.43
2022-12-23T17:14:15.545Z,9.43
2022-12-23T17:16:43.335Z,9.45
2022-12-23T17:19:10.138Z,9.46
2022-12-23T17:21:39.158Z,9.47
2022-12-23T17:24:26.249Z,9.50
2022-12-23T17:26:54.403Z,9.49
2022-12-23T17:29:21.209Z,9.49
2022-12-23T17:31:48.779Z,9.52
2022-12-23T17:34:21.561Z,9.52
2022-12-23T17:36:50.578Z,9.49
2022-12-23T17:39:18.826Z,9.49
2022-12-23T17:41:46.008Z,9.48
2022-12-23T17:44:17.487Z,9.45
2022-12-23T17:46:45.850Z,9.45
2022-12-23T17:49:12.765Z,9.40
2022-12-23T17:51:40.531Z,9.35
2022-12-23T17:54:10.224Z,9.32
2022-12-23T17:56:37.003Z,9.25
2022-12-23T17:59:04.104Z,9.25
2022-12-23T18:01:32.250Z,9.27
2022-12-23T18:03:59.991Z,9.29
2022-12-23T18:06:28.940Z,9.28
2022-12-23T18:08:58.923Z,9.28
2022-12-23T18:11:39.062Z,9.29
2022-12-23T18:14:13.141Z,9.31
2022-12-23T18:16:40.186Z,9.33
2022-12-23T18:19:16.617Z,9.34
2022-12-23T18:21:43.485Z,9.36
2022-12-23T18:24:10.900Z,9.39
2022-12-23T18:26:38.084Z,9.39
2022-12-23T18:29:05.235Z,9.40
2022-12-23T18:31:32.772Z,9.42
2022-12-23T18:34:00.350Z,9.42
2022-12-23T18:36:35.855Z,9.44
2022-12-23T18:39:02.657Z,9.44
2022-12-23T18:41:29.396Z,9.43
2022-12-23T18:43:56.826Z,9.41
2022-12-23T18:46:23.720Z,9.38
2022-12-23T18:48:51.719Z,9.38
2022-12-23T18:51:20.950Z,9.38
2022-12-23T18:53:48.675Z,9.38
2022-12-23T18:56:17.599Z,9.39
2022-12-23T18:58:44.323Z,9.38
2022-12-23T19:01:15.524Z,9.36
2022-12-23T19:03:43.163Z,9.35
2022-12-23T19:06:13.561Z,9.34
2022-12-23T19:08:41.495Z,9.36
2022-12-23T19:11:13.947Z,9.38
2022-12-23T19:13:41.305Z,9.40
2022-12-23T19:16:11.586Z,9.42
2022-12-23T19:18:38.886Z,9.46
2022-12-23T19:21:05.977Z,9.49
2022-12-23T19:23:33.231Z,9.49
2022-12-23T19:26:00.036Z,9.50
2022-12-23T19:28:27.219Z,9.48
2022-12-23T19:30:54.031Z,9.49
2022-12-23T19:33:20.804Z,9.47
2022-12-23T19:35:47.559Z,9.45
2022-12-23T19:38:14.329Z,9.44
2022-12-23T19:40:41.237Z,9.45
2022-12-23T19:43:08.239Z,9.43
2022-12-23T19:45:35.000Z,9.48
2022-12-23T19:48:01.789Z,9.49
2022-12-23T19:50:30.380Z,9.41
2022-12-23T19:52:57.557Z,9.53
2022-12-23T19:55:24.308Z,9.54
2022-12-23T19:57:52.342Z,9.56
2022-12-23T20:00:19.277Z,9.58
2022-12-23T20:02:46.287Z,9.59
2022-12-23T20:05:13.164Z,9.61
2022-12-23T20:07:39.984Z,9.63
2022-12-23T20:10:07.542Z,9.64
2022-12-23T20:12:34.354Z,9.64
2022-12-23T20:15:01.181Z,9.66
2022-12-23T20:17:27.928Z,9.66
2022-12-23T20:19:54.669Z,9.64
2022-12-23T20:22:21.667Z,9.67
2022-12-23T20:24:48.674Z,9.69
2022-12-23T20:27:16.250Z,9.71
2022-12-23T20:29:43.719Z,9.74
2022-12-23T20:32:10.734Z,9.76
2022-12-23T20:34:40.010Z,9.79
2022-12-23T20:37:07.669Z,9.80
2022-12-23T20:39:35.262Z,9.84
2022-12-23T20:42:02.130Z,9.88
2022-12-23T20:44:37.502Z,9.94
2022-12-23T20:47:07.905Z,9.98
2022-12-23T20:49:34.685Z,10.05
2022-12-23T20:52:01.897Z,10.09
2022-12-23T20:54:33.281Z,10.11
2022-12-23T20:57:02.437Z,10.14
2022-12-23T20:59:29.545Z,10.17
2022-12-23T21:01:58.940Z,10.18
2022-12-23T21:04:25.897Z,10.18
2022-12-23T21:06:52.732Z,10.18
2022-12-23T21:09:19.479Z,10.20
2022-12-23T21:11:47.406Z,10.21
2022-12-23T21:14:15.287Z,10.24
2022-12-23T21:16:43.130Z,10.26
2022-12-23T21:19:17.230Z,10.29
2022-12-23T21:21:44.543Z,10.31
2022-12-23T21:24:11.793Z,10.34
2022-12-23T21:26:38.888Z,10.36
2022-12-23T21:29:07.255Z,10.37
2022-12-23T21:31:36.699Z,10.37
2022-12-23T21:34:03.795Z,10.37
2022-12-23T21:36:33.909Z,10.38
2022-12-23T21:39:01.180Z,10.39
2022-12-23T21:41:31.036Z,10.40
2022-12-23T21:43:59.477Z,10.40
2022-12-23T21:46:27.650Z,10.41
2022-12-23T21:48:56.464Z,10.41
2022-12-23T21:51:26.530Z,10.42
2022-12-23T21:53:55.521Z,10.42
2022-12-23T21:56:28.086Z,10.42
2022-12-23T21:58:56.626Z,10.43
2022-12-23T22:01:23.574Z,10.42
2022-12-23T22:03:51.317Z,10.42
2022-12-23T22:06:24.937Z,10.43
2022-12-23T22:08:52.709Z,10.42
2022-12-23T22:11:25.678Z,10.40
2022-12-23T22:13:52.790Z,10.40
2022-12-23T22:16:22.734Z,10.36
2022-12-23T22:18:50.649Z,10.35
2022-12-23T22:21:20.373Z,10.35
2022-12-23T22:23:47.846Z,10.35
2022-12-23T22:26:24.780Z,10.31
2022-12-23T22:28:53.949Z,10.28
2022-12-23T22:31:44.324Z,10.29
2022-12-23T22:34:14.995Z,10.26
2022-12-23T22:36:42.030Z,10.24
2022-12-23T22:39:19.470Z,10.25
2022-12-23T22:41:47.427Z,10.24
2022-12-23T22:44:15.197Z,10.23
2022-12-23T22:46:42.607Z,10.20
2022-12-23T22:49:13.942Z,10.18
2022-12-23T22:51:41.781Z,10.16
2022-12-23T22:54:09.189Z,10.16
2022-12-23T22:56:36.466Z,10.14
2022-12-23T22:59:04.958Z,10.14
2022-12-23T23:01:34.519Z,10.12
2022-12-23T23:04:03.198Z,10.13
2022-12-23T23:06:35.130Z,10.12
2022-12-23T23:09:02.209Z,10.11
2022-12-23T23:11:29.615Z,10.08
2022-12-23T23:13:57.285Z,10.07
2022-12-23T23:16:25.223Z,10.08
2022-12-23T23:18:53.016Z,10.09
2022-12-23T23:21:20.531Z,10.09
2022-12-23T23:23:47.914Z,10.09
2022-12-23T23:26:15.254Z,10.09
2022-12-23T23:28:42.339Z,10.09
2022-12-23T23:31:40.626Z,10.07
2022-12-23T23:33:58.061Z,10.04
2022-12-23T23:36:25.179Z,10.01
2022-12-23T23:38:52.105Z,10.00
2022-12-23T23:41:23.221Z,9.98
2022-12-23T23:43:51.593Z,9.95
2022-12-23T23:46:18.551Z,9.96
2022-12-23T23:48:45.492Z,9.94
2022-12-23T23:51:12.936Z,9.95
2022-12-23T23:53:40.683Z,9.95
2022-12-23T23:56:08.822Z,9.94
2022-12-23T23:58:36.732Z,9.93
